Brussels, Belgium

7:47 AM CET on February 10, 2016 (GMT +0100)
Berg | | Change Station
CLOSE
Current Station
Personal Weather Station
Location: Kampenhout, VLAAMS BRABANT
Elevation: 54 ft
Nearby Weather Stations

Elev 54 ft 50.93 °N, 4.53 °E | Updated 5 minutes ago

Mostly Cloudy
Mostly Cloudy
39.4 °F
Feels Like 35 °F
N
6.0
Wind Variable Wind from SSW
Gusts 18.0 mph

Today
High -- | Low -- °F
--% Chance of Precip.
Yesterday
High -- | Low -- °F
Precip. -- in
Pressure 29.30 in
Visibility 6.2 miles
Clouds Few 800 ft
Mostly Cloudy 1000 ft
Windchill 35 °F
Dew Point 37 °F
Humidity 90%
Rainfall 0.02 in
Snow Depth Not available.
8:04 AM 5:48 PM
Waxing Crescent, 4% visible
METAR EBBE 100625Z 23016KT 9999 FEW008 BKN010 03/01 Q0992 GRN GRN
Pressure 29.30 in
Visibility 6.2 miles
Clouds Few 800 ft
Mostly Cloudy 1000 ft
Windchill 35 °F
Dew Point 37 °F
Humidity 90%
Rainfall 0.02 in
Snow Depth Not available.
8:04 AM 5:48 PM
Waxing Crescent, 4% visible
METAR EBBE 100625Z 23016KT 9999 FEW008 BKN010 03/01 Q0992 GRN GRN

10-Day Weather Forecast

Almanac

Astronomy

Feb. 10, 2016 Rise Set
Actual Time
Civil Twilight
Nautical Twilight
Astronomical Twilight
Moon
Length of Visible Light
Length of Day
Tomorrow will be .
, % of the Moon is Illuminated

Today's Extremes

Country Highs Country Lows

Community

WunderPhotos

Upload Photos

1,891,826 photos uploaded!

WunderBlog® & News

Nearby

Air Quality

  Air Quality AQ Index Pollutant
Not available.

Snow Depth

Station Depth Elevation

Earthquake Activity

City Distance Mag. Time & Date
Minimum magnitude displayed is 2.5.

Coastal Water Temperatures

Place Temperature

Stations

Nearby Weather Stations

Station Location Temp. Windchill Dew Point Humidity Wind Precip. Elev Updated Type